sensor_id;sensor_type;location;lat;lon;timestamp;pressure;altitude;pressure_sealevel;temperature;humidity
35307;BME280;21420;52.196;21.416;2023-03-01T00:01:17;101584.48;;;-4.81;56.44
35307;BME280;21420;52.196;21.416;2023-03-01T00:03:45;101583.00;;;-4.80;56.43
35307;BME280;21420;52.196;21.416;2023-03-01T00:06:12;101583.98;;;-4.78;56.39
35307;BME280;21420;52.196;21.416;2023-03-01T00:08:39;101580.61;;;-4.74;56.47
35307;BME280;21420;52.196;21.416;2023-03-01T00:11:18;101578.36;;;-4.69;56.44
35307;BME280;21420;52.196;21.416;2023-03-01T00:13:47;101574.83;;;-4.68;56.44
35307;BME280;21420;52.196;21.416;2023-03-01T00:16:17;101573.91;;;-4.68;56.57
35307;BME280;21420;52.196;21.416;2023-03-01T00:18:45;101573.50;;;-4.68;56.56
35307;BME280;21420;52.196;21.416;2023-03-01T00:21:12;101569.85;;;-4.67;56.59
35307;BME280;21420;52.196;21.416;2023-03-01T00:23:40;101560.52;;;-4.68;56.57
35307;BME280;21420;52.196;21.416;2023-03-01T00:26:12;101563.15;;;-4.66;56.64
35307;BME280;21420;52.196;21.416;2023-03-01T00:28:41;101564.58;;;-4.63;56.67
35307;BME280;21420;52.196;21.416;2023-03-01T00:31:11;101561.95;;;-4.58;56.63
35307;BME280;21420;52.196;21.416;2023-03-01T00:33:39;101565.98;;;-4.54;56.74
35307;BME280;21420;52.196;21.416;2023-03-01T00:36:06;101563.39;;;-4.51;56.79
35307;BME280;21420;52.196;21.416;2023-03-01T00:38:36;101562.52;;;-4.47;56.94
35307;BME280;21420;52.196;21.416;2023-03-01T00:41:09;101562.39;;;-4.45;56.86
35307;BME280;21420;52.196;21.416;2023-03-01T00:43:37;101561.16;;;-4.44;56.87
35307;BME280;21420;52.196;21.416;2023-03-01T00:46:06;101565.89;;;-4.44;57.05
35307;BME280;21420;52.196;21.416;2023-03-01T00:48:33;101569.02;;;-4.46;56.92
35307;BME280;21420;52.196;21.416;2023-03-01T00:51:24;101567.77;;;-4.50;57.00
35307;BME280;21420;52.196;21.416;2023-03-01T00:53:56;101567.77;;;-4.49;56.97
35307;BME280;21420;52.196;21.416;2023-03-01T00:56:24;101566.92;;;-4.47;56.97
35307;BME280;21420;52.196;21.416;2023-03-01T00:58:51;101566.30;;;-4.45;57.02
35307;BME280;21420;52.196;21.416;2023-03-01T01:01:21;101562.96;;;-4.41;56.99
35307;BME280;21420;52.196;21.416;2023-03-01T01:06:17;101552.63;;;-4.41;57.12
35307;BME280;21420;52.196;21.416;2023-03-01T01:08:45;101550.16;;;-4.43;57.15
35307;BME280;21420;52.196;21.416;2023-03-01T01:11:12;101550.42;;;-4.45;57.28
35307;BME280;21420;52.196;21.416;2023-03-01T01:13:40;101550.95;;;-4.46;57.11
35307;BME280;21420;52.196;21.416;2023-03-01T01:16:07;101545.40;;;-4.47;57.06
35307;BME280;21420;52.196;21.416;2023-03-01T01:18:35;101534.13;;;-4.47;57.03
35307;BME280;21420;52.196;21.416;2023-03-01T01:21:07;101530.19;;;-4.45;57.04
35307;BME280;21420;52.196;21.416;2023-03-01T01:23:34;101532.77;;;-4.45;57.15
35307;BME280;21420;52.196;21.416;2023-03-01T01:26:06;101533.59;;;-4.44;57.12
35307;BME280;21420;52.196;21.416;2023-03-01T01:28:34;101534.73;;;-4.42;57.33
35307;BME280;21420;52.196;21.416;2023-03-01T01:31:01;101531.81;;;-4.42;57.36
35307;BME280;21420;52.196;21.416;2023-03-01T01:33:28;101536.30;;;-4.43;57.38
35307;BME280;21420;52.196;21.416;2023-03-01T01:35:55;101533.96;;;-4.47;57.27
35307;BME280;21420;52.196;21.416;2023-03-01T01:38:22;101529.86;;;-4.53;57.31
35307;BME280;21420;52.196;21.416;2023-03-01T01:40:49;101524.11;;;-4.57;57.28
35307;BME280;21420;52.196;21.416;2023-03-01T01:43:24;101518.72;;;-4.55;57.40
35307;BME280;21420;52.196;21.416;2023-03-01T01:45:55;101512.66;;;-4.51;57.54
35307;BME280;21420;52.196;21.416;2023-03-01T01:48:29;101510.05;;;-4.48;57.52
35307;BME280;21420;52.196;21.416;2023-03-01T01:51:10;101507.44;;;-4.46;57.73
35307;BME280;21420;52.196;21.416;2023-03-01T01:53:39;101511.26;;;-4.45;57.62
35307;BME280;21420;52.196;21.416;2023-03-01T01:56:08;101513.77;;;-4.45;57.76
35307;BME280;21420;52.196;21.416;2023-03-01T01:58:38;101503.69;;;-4.47;57.85
35307;BME280;21420;52.196;21.416;2023-03-01T02:01:07;101503.04;;;-4.50;57.60
35307;BME280;21420;52.196;21.416;2023-03-01T02:03:36;101505.55;;;-4.53;57.60
35307;BME280;21420;52.196;21.416;2023-03-01T02:06:21;101504.70;;;-4.57;57.65
35307;BME280;21420;52.196;21.416;2023-03-01T02:09:03;101501.94;;;-4.56;57.71
35307;BME280;21420;52.196;21.416;2023-03-01T02:11:33;101498.77;;;-4.55;57.70
35307;BME280;21420;52.196;21.416;2023-03-01T02:14:00;101498.81;;;-4.55;57.76
35307;BME280;21420;52.196;21.416;2023-03-01T02:16:27;101501.64;;;-4.58;57.83
35307;BME280;21420;52.196;21.416;2023-03-01T02:18:57;101498.40;;;-4.59;57.81
35307;BME280;21420;52.196;21.416;2023-03-01T02:26:55;101486.05;;;-4.56;58.06
35307;BME280;21420;52.196;21.416;2023-03-01T02:29:23;101485.69;;;-4.53;58.04
35307;BME280;21420;52.196;21.416;2023-03-01T02:31:52;101481.61;;;-4.52;58.16
35307;BME280;21420;52.196;21.416;2023-03-01T02:34:26;101480.84;;;-4.53;58.17
35307;BME280;21420;52.196;21.416;2023-03-01T02:36:57;101479.06;;;-4.54;57.97
35307;BME280;21420;52.196;21.416;2023-03-01T02:39:36;101473.27;;;-4.55;58.10
35307;BME280;21420;52.196;21.416;2023-03-01T02:42:14;101473.92;;;-4.55;58.12
35307;BME280;21420;52.196;21.416;2023-03-01T02:44:42;101469.96;;;-4.53;58.03
35307;BME280;21420;52.196;21.416;2023-03-01T02:47:09;101466.84;;;-4.50;58.21
35307;BME280;21420;52.196;21.416;2023-03-01T02:49:37;101466.42;;;-4.46;58.44
35307;BME280;21420;52.196;21.416;2023-03-01T02:55:12;101465.13;;;-4.44;58.44
35307;BME280;21420;52.196;21.416;2023-03-01T02:57:42;101459.55;;;-4.46;58.37
35307;BME280;21420;52.196;21.416;2023-03-01T03:00:16;101454.16;;;-4.47;58.25
35307;BME280;21420;52.196;21.416;2023-03-01T03:02:50;101453.67;;;-4.46;58.32
35307;BME280;21420;52.196;21.416;2023-03-01T03:05:20;101455.23;;;-4.45;58.46
35307;BME280;21420;52.196;21.416;2023-03-01T03:07:50;101443.98;;;-4.43;58.61
35307;BME280;21420;52.196;21.416;2023-03-01T03:10:26;101438.80;;;-4.42;58.65
35307;BME280;21420;52.196;21.416;2023-03-01T03:12:59;101435.43;;;-4.42;58.53
35307;BME280;21420;52.196;21.416;2023-03-01T03:18:11;101430.73;;;-4.42;58.60
35307;BME280;21420;52.196;21.416;2023-03-01T03:20:40;101426.83;;;-4.42;58.49
35307;BME280;21420;52.196;21.416;2023-03-01T03:23:07;101425.17;;;-4.42;58.73
35307;BME280;21420;52.196;21.416;2023-03-01T03:25:34;101430.07;;;-4.39;58.59
35307;BME280;21420;52.196;21.416;2023-03-01T03:28:06;101436.20;;;-4.35;58.73
35307;BME280;21420;52.196;21.416;2023-03-01T03:30:38;101439.23;;;-4.34;58.89
35307;BME280;21420;52.196;21.416;2023-03-01T03:33:10;101441.73;;;-4.33;58.97
35307;BME280;21420;52.196;21.416;2023-03-01T03:35:43;101441.67;;;-4.31;58.76
35307;BME280;21420;52.196;21.416;2023-03-01T03:38:12;101441.30;;;-4.29;58.72
35307;BME280;21420;52.196;21.416;2023-03-01T03:40:44;101437.51;;;-4.26;58.82
35307;BME280;21420;52.196;21.416;2023-03-01T03:43:22;101435.11;;;-4.23;58.84
35307;BME280;21420;52.196;21.416;2023-03-01T03:45:50;101431.81;;;-4.21;59.08
35307;BME280;21420;52.196;21.416;2023-03-01T03:48:18;101428.10;;;-4.20;59.15
35307;BME280;21420;52.196;21.416;2023-03-01T03:50:50;101421.69;;;-4.20;59.05
35307;BME280;21420;52.196;21.416;2023-03-01T03:53:18;101415.08;;;-4.22;59.05
35307;BME280;21420;52.196;21.416;2023-03-01T03:55:45;101413.06;;;-4.24;58.78
35307;BME280;21420;52.196;21.416;2023-03-01T03:58:16;101410.39;;;-4.26;58.83
35307;BME280;21420;52.196;21.416;2023-03-01T04:00:48;101404.55;;;-4.26;59.05
35307;BME280;21420;52.196;21.416;2023-03-01T04:03:16;101401.09;;;-4.26;59.03
35307;BME280;21420;52.196;21.416;2023-03-01T04:05:45;101397.52;;;-4.27;59.03
35307;BME280;21420;52.196;21.416;2023-03-01T04:08:13;101396.05;;;-4.30;59.08
35307;BME280;21420;52.196;21.416;2023-03-01T04:10:43;101394.79;;;-4.31;59.15
35307;BME280;21420;52.196;21.416;2023-03-01T04:13:13;101400.05;;;-4.29;59.34
35307;BME280;21420;52.196;21.416;2023-03-01T04:15:40;101406.38;;;-4.28;59.56
35307;BME280;21420;52.196;21.416;2023-03-01T04:18:08;101410.26;;;-4.26;59.56
35307;BME280;21420;52.196;21.416;2023-03-01T04:20:38;101412.23;;;-4.24;59.53
35307;BME280;21420;52.196;21.416;2023-03-01T04:23:08;101412.89;;;-4.23;59.53
35307;BME280;21420;52.196;21.416;2023-03-01T04:28:21;101398.16;;;-4.25;59.52
35307;BME280;21420;52.196;21.416;2023-03-01T04:30:55;101398.33;;;-4.25;59.38
35307;BME280;21420;52.196;21.416;2023-03-01T04:43:45;101374.05;;;-4.32;59.66
35307;BME280;21420;52.196;21.416;2023-03-01T04:46:15;101375.33;;;-4.35;59.64
35307;BME280;21420;52.196;21.416;2023-03-01T04:48:43;101373.67;;;-4.34;59.67
35307;BME280;21420;52.196;21.416;2023-03-01T04:51:11;101372.85;;;-4.30;59.81
35307;BME280;21420;52.196;21.416;2023-03-01T04:53:42;101370.28;;;-4.27;59.91
35307;BME280;21420;52.196;21.416;2023-03-01T04:56:09;101374.81;;;-4.26;59.96
35307;BME280;21420;52.196;21.416;2023-03-01T04:58:36;101372.68;;;-4.29;60.01
35307;BME280;21420;52.196;21.416;2023-03-01T05:01:17;101377.30;;;-4.31;59.89
35307;BME280;21420;52.196;21.416;2023-03-01T05:03:48;101383.26;;;-4.32;60.03
35307;BME280;21420;52.196;21.416;2023-03-01T05:06:16;101385.48;;;-4.30;60.05
35307;BME280;21420;52.196;21.416;2023-03-01T05:08:45;101387.60;;;-4.27;60.26
35307;BME280;21420;52.196;21.416;2023-03-01T05:11:12;101396.48;;;-4.26;60.18
35307;BME280;21420;52.196;21.416;2023-03-01T05:13:39;101399.20;;;-4.25;60.27
35307;BME280;21420;52.196;21.416;2023-03-01T05:16:08;101395.05;;;-4.26;60.28
35307;BME280;21420;52.196;21.416;2023-03-01T05:18:39;101391.39;;;-4.28;60.31
35307;BME280;21420;52.196;21.416;2023-03-01T05:21:12;101391.90;;;-4.31;60.25
35307;BME280;21420;52.196;21.416;2023-03-01T05:23:43;101391.77;;;-4.33;60.18
35307;BME280;21420;52.196;21.416;2023-03-01T05:26:10;101397.37;;;-4.34;60.28
35307;BME280;21420;52.196;21.416;2023-03-01T05:28:54;101399.14;;;-4.32;60.30
35307;BME280;21420;52.196;21.416;2023-03-01T05:31:26;101403.50;;;-4.30;60.36
35307;BME280;21420;52.196;21.416;2023-03-01T05:33:53;101407.28;;;-4.28;60.38
35307;BME280;21420;52.196;21.416;2023-03-01T05:36:20;101410.71;;;-4.24;60.40
35307;BME280;21420;52.196;21.416;2023-03-01T05:38:47;101411.72;;;-4.18;60.43
35307;BME280;21420;52.196;21.416;2023-03-01T05:41:15;101411.16;;;-4.13;60.50
35307;BME280;21420;52.196;21.416;2023-03-01T05:43:43;101414.67;;;-4.08;60.59
35307;BME280;21420;52.196;21.416;2023-03-01T05:46:12;101415.02;;;-4.04;60.68
35307;BME280;21420;52.196;21.416;2023-03-01T05:48:40;101419.20;;;-3.98;60.72
35307;BME280;21420;52.196;21.416;2023-03-01T05:51:07;101422.66;;;-3.92;60.81
35307;BME280;21420;52.196;21.416;2023-03-01T05:53:33;101423.67;;;-3.87;60.74
35307;BME280;21420;52.196;21.416;2023-03-01T05:56:03;101424.98;;;-3.79;60.74
35307;BME280;21420;52.196;21.416;2023-03-01T05:58:30;101424.59;;;-3.70;60.65
35307;BME280;21420;52.196;21.416;2023-03-01T06:00:57;101426.34;;;-3.58;60.76
35307;BME280;21420;52.196;21.416;2023-03-01T06:03:24;101426.20;;;-3.45;60.85
35307;BME280;21420;52.196;21.416;2023-03-01T06:05:56;101426.05;;;-3.31;60.88
35307;BME280;21420;52.196;21.416;2023-03-01T06:08:23;101422.05;;;-3.17;60.94
35307;BME280;21420;52.196;21.416;2023-03-01T06:10:51;101418.95;;;-3.00;61.08
35307;BME280;21420;52.196;21.416;2023-03-01T06:13:18;101416.94;;;-2.84;61.11
35307;BME280;21420;52.196;21.416;2023-03-01T06:15:44;101419.61;;;-2.66;61.18
35307;BME280;21420;52.196;21.416;2023-03-01T06:18:11;101420.60;;;-2.49;61.16
35307;BME280;21420;52.196;21.416;2023-03-01T06:20:38;101424.59;;;-2.31;61.06
35307;BME280;21420;52.196;21.416;2023-03-01T06:23:05;101427.22;;;-2.10;61.08
35307;BME280;21420;52.196;21.416;2023-03-01T06:25:33;101427.82;;;-1.86;61.16
35307;BME280;21420;52.196;21.416;2023-03-01T06:28:00;101429.09;;;-1.62;61.03
35307;BME280;21420;52.196;21.416;2023-03-01T06:30:27;101422.14;;;-1.38;61.23
35307;BME280;21420;52.196;21.416;2023-03-01T06:32:56;101421.77;;;-1.04;61.34
35307;BME280;21420;52.196;21.416;2023-03-01T06:35:31;101418.71;;;-0.63;61.42
35307;BME280;21420;52.196;21.416;2023-03-01T06:37:59;101418.72;;;-0.27;61.37
35307;BME280;21420;52.196;21.416;2023-03-01T06:40:27;101415.33;;;0.12;61.38
35307;BME280;21420;52.196;21.416;2023-03-01T06:42:54;101417.65;;;0.51;61.34
35307;BME280;21420;52.196;21.416;2023-03-01T06:45:21;101416.16;;;0.82;61.19
35307;BME280;21420;52.196;21.416;2023-03-01T06:47:48;101417.75;;;1.16;61.12
35307;BME280;21420;52.196;21.416;2023-03-01T06:50:17;101418.30;;;1.51;61.12
35307;BME280;21420;52.196;21.416;2023-03-01T06:52:44;101424.35;;;1.90;61.20
35307;BME280;21420;52.196;21.416;2023-03-01T06:55:12;101424.02;;;2.29;61.07
35307;BME280;21420;52.196;21.416;2023-03-01T06:57:40;101420.15;;;2.61;60.92
35307;BME280;21420;52.196;21.416;2023-03-01T07:00:08;101420.48;;;2.96;60.65
35307;BME280;21420;52.196;21.416;2023-03-01T07:02:35;101415.58;;;3.23;60.39
35307;BME280;21420;52.196;21.416;2023-03-01T07:05:02;101414.60;;;3.41;60.11
35307;BME280;21420;52.196;21.416;2023-03-01T07:07:29;101417.73;;;3.60;60.03
35307;BME280;21420;52.196;21.416;2023-03-01T07:09:56;101424.84;;;3.89;59.91
35307;BME280;21420;52.196;21.416;2023-03-01T07:12:23;101427.86;;;4.22;60.00
35307;BME280;21420;52.196;21.416;2023-03-01T07:14:49;101424.51;;;4.69;60.05
35307;BME280;21420;52.196;21.416;2023-03-01T07:17:16;101421.77;;;5.09;59.99
35307;BME280;21420;52.196;21.416;2023-03-01T07:19:43;101418.73;;;5.59;59.94
35307;BME280;21420;52.196;21.416;2023-03-01T07:22:11;101416.40;;;6.20;59.96
35307;BME280;21420;52.196;21.416;2023-03-01T07:24:38;101414.05;;;6.71;59.79
35307;BME280;21420;52.196;21.416;2023-03-01T07:27:05;101404.69;;;7.14;59.66
35307;BME280;21420;52.196;21.416;2023-03-01T07:29:32;101404.95;;;7.31;58.82
35307;BME280;21420;52.196;21.416;2023-03-01T07:31:59;101401.24;;;7.35;58.61
35307;BME280;21420;52.196;21.416;2023-03-01T07:34:26;101403.85;;;7.36;58.35
35307;BME280;21420;52.196;21.416;2023-03-01T07:36:53;101401.89;;;7.42;58.29
35307;BME280;21420;52.196;21.416;2023-03-01T07:39:20;101401.55;;;7.69;58.24
35307;BME280;21420;52.196;21.416;2023-03-01T07:41:46;101401.38;;;8.08;58.33
35307;BME280;21420;52.196;21.416;2023-03-01T07:44:13;101398.81;;;8.54;58.51
35307;BME280;21420;52.196;21.416;2023-03-01T07:46:41;101396.64;;;8.97;58.24
35307;BME280;21420;52.196;21.416;2023-03-01T07:49:08;101396.23;;;9.34;58.18
35307;BME280;21420;52.196;21.416;2023-03-01T07:51:35;101398.52;;;9.81;58.04
35307;BME280;21420;52.196;21.416;2023-03-01T07:54:02;101399.80;;;10.35;58.18
35307;BME280;21420;52.196;21.416;2023-03-01T07:56:29;101398.52;;;11.15;58.53
35307;BME280;21420;52.196;21.416;2023-03-01T07:58:59;101398.59;;;11.84;58.50
35307;BME280;21420;52.196;21.416;2023-03-01T08:01:26;101399.59;;;12.54;58.24
35307;BME280;21420;52.196;21.416;2023-03-01T08:03:53;101400.55;;;12.93;57.45
35307;BME280;21420;52.196;21.416;2023-03-01T08:06:20;101404.47;;;13.30;57.08
35307;BME280;21420;52.196;21.416;2023-03-01T08:08:47;101406.10;;;13.50;56.43
35307;BME280;21420;52.196;21.416;2023-03-01T08:11:14;101408.80;;;13.61;56.24
35307;BME280;21420;52.196;21.416;2023-03-01T08:13:43;101410.81;;;13.92;56.46
35307;BME280;21420;52.196;21.416;2023-03-01T08:16:12;101409.13;;;14.18;56.19
35307;BME280;21420;52.196;21.416;2023-03-01T08:18:40;101407.26;;;14.43;56.09
35307;BME280;21420;52.196;21.416;2023-03-01T08:21:09;101403.44;;;14.83;56.02
35307;BME280;21420;52.196;21.416;2023-03-01T08:23:38;101406.38;;;15.25;55.65
35307;BME280;21420;52.196;21.416;2023-03-01T08:28:36;101407.49;;;15.47;54.91
35307;BME280;21420;52.196;21.416;2023-03-01T08:31:12;101401.38;;;15.77;54.70
35307;BME280;21420;52.196;21.416;2023-03-01T08:33:41;101395.16;;;15.75;54.23
35307;BME280;21420;52.196;21.416;2023-03-01T08:36:08;101389.40;;;15.98;54.26
35307;BME280;21420;52.196;21.416;2023-03-01T08:38:35;101388.02;;;16.01;53.68
35307;BME280;21420;52.196;21.416;2023-03-01T08:41:03;101391.21;;;16.17;54.00
35307;BME280;21420;52.196;21.416;2023-03-01T08:43:30;101397.69;;;16.38;53.84
35307;BME280;21420;52.196;21.416;2023-03-01T08:45:57;101397.89;;;16.59;53.82
35307;BME280;21420;52.196;21.416;2023-03-01T08:48:24;101396.45;;;16.68;53.59
35307;BME280;21420;52.196;21.416;2023-03-01T08:50:51;101390.23;;;17.03;54.01
35307;BME280;21420;52.196;21.416;2023-03-01T08:53:18;101392.45;;;17.57;54.23
35307;BME280;21420;52.196;21.416;2023-03-01T08:55:45;101394.91;;;17.97;53.98
35307;BME280;21420;52.196;21.416;2023-03-01T08:58:16;101394.38;;;18.31;53.97
35307;BME280;21420;52.196;21.416;2023-03-01T09:00:45;101390.91;;;18.56;53.72
35307;BME280;21420;52.196;21.416;2023-03-01T09:03:12;101387.68;;;18.49;52.77
35307;BME280;21420;52.196;21.416;2023-03-01T09:05:39;101390.20;;;18.17;52.65
35307;BME280;21420;52.196;21.416;2023-03-01T09:08:06;101389.30;;;18.32;52.96
35307;BME280;21420;52.196;21.416;2023-03-01T09:10:37;101384.59;;;18.69;53.11
35307;BME280;21420;52.196;21.416;2023-03-01T09:13:05;101382.60;;;19.06;53.06
35307;BME280;21420;52.196;21.416;2023-03-01T09:15:32;101379.84;;;19.12;52.39
35307;BME280;21420;52.196;21.416;2023-03-01T09:18:00;101375.77;;;18.92;51.82
35307;BME280;21420;52.196;21.416;2023-03-01T09:20:27;101370.31;;;18.60;51.14
35307;BME280;21420;52.196;21.416;2023-03-01T09:22:54;101369.90;;;17.98;50.61
35307;BME280;21420;52.196;21.416;2023-03-01T09:25:20;101364.37;;;17.54;50.76
35307;BME280;21420;52.196;21.416;2023-03-01T09:27:50;101361.29;;;17.37;51.08
35307;BME280;21420;52.196;21.416;2023-03-01T09:30:18;101363.61;;;17.51;51.37
35307;BME280;21420;52.196;21.416;2023-03-01T09:32:45;101358.29;;;17.71;51.41
35307;BME280;21420;52.196;21.416;2023-03-01T09:35:12;101351.98;;;18.04;51.72
35307;BME280;21420;52.196;21.416;2023-03-01T09:37:39;101356.92;;;18.40;51.22
35307;BME280;21420;52.196;21.416;2023-03-01T09:40:15;101356.34;;;18.46;50.82
35307;BME280;21420;52.196;21.416;2023-03-01T09:43:18;101354.46;;;18.52;50.98
35307;BME280;21420;52.196;21.416;2023-03-01T09:45:48;101358.54;;;18.74;50.72
35307;BME280;21420;52.196;21.416;2023-03-01T09:48:18;101356.95;;;18.95;50.72
35307;BME280;21420;52.196;21.416;2023-03-01T09:50:49;101356.02;;;19.15;50.71
35307;BME280;21420;52.196;21.416;2023-03-01T09:53:19;101353.46;;;19.54;51.29
35307;BME280;21420;52.196;21.416;2023-03-01T10:01:10;101343.13;;;19.94;50.28
35307;BME280;21420;52.196;21.416;2023-03-01T10:04:12;101342.56;;;20.07;50.67
35307;BME280;21420;52.196;21.416;2023-03-01T10:06:38;101338.99;;;20.13;49.92
35307;BME280;21420;52.196;21.416;2023-03-01T10:09:13;101336.14;;;19.79;49.12
35307;BME280;21420;52.196;21.416;2023-03-01T10:11:49;101321.94;;;19.47;49.17
35307;BME280;21420;52.196;21.416;2023-03-01T10:14:36;101322.05;;;19.38;49.34
35307;BME280;21420;52.196;21.416;2023-03-01T10:17:10;101319.41;;;19.68;50.00
35307;BME280;21420;52.196;21.416;2023-03-01T10:19:41;101314.64;;;20.09;50.16
35307;BME280;21420;52.196;21.416;2023-03-01T10:22:21;101314.95;;;20.51;50.17
35307;BME280;21420;52.196;21.416;2023-03-01T10:24:52;101317.46;;;20.39;49.04
35307;BME280;21420;52.196;21.416;2023-03-01T10:27:25;101315.71;;;20.40;49.85
35307;BME280;21420;52.196;21.416;2023-03-01T10:32:38;101309.16;;;20.16;48.94
35307;BME280;21420;52.196;21.416;2023-03-01T10:35:23;101306.83;;;20.07;49.05
35307;BME280;21420;52.196;21.416;2023-03-01T10:38:10;101306.52;;;20.29;49.44
35307;BME280;21420;52.196;21.416;2023-03-01T10:41:05;101304.38;;;20.56;49.24
35307;BME280;21420;52.196;21.416;2023-03-01T10:43:50;101301.34;;;20.49;49.27
35307;BME280;21420;52.196;21.416;2023-03-01T10:46:31;101298.45;;;20.61;48.88
35307;BME280;21420;52.196;21.416;2023-03-01T10:49:19;101292.75;;;20.72;49.35
35307;BME280;21420;52.196;21.416;2023-03-01T10:51:49;101294.63;;;21.25;49.78
35307;BME280;21420;52.196;21.416;2023-03-01T10:54:37;101295.77;;;21.62;49.56
35307;BME280;21420;52.196;21.416;2023-03-01T10:57:28;101300.38;;;21.92;49.18
35307;BME280;21420;52.196;21.416;2023-03-01T11:00:23;101299.22;;;22.01;48.88
35307;BME280;21420;52.196;21.416;2023-03-01T11:03:11;101293.77;;;21.79;48.21
35307;BME280;21420;52.196;21.416;2023-03-01T11:06:44;101289.79;;;21.26;47.62
35307;BME280;21420;52.196;21.416;2023-03-01T11:08:50;101282.58;;;21.09;48.18
35307;BME280;21420;52.196;21.416;2023-03-01T11:14:17;101290.04;;;21.28;48.42
35307;BME280;21420;52.196;21.416;2023-03-01T11:17:02;101284.78;;;21.28;48.40
35307;BME280;21420;52.196;21.416;2023-03-01T11:19:29;101277.00;;;21.39;48.44
35307;BME280;21420;52.196;21.416;2023-03-01T11:22:07;101282.16;;;21.06;47.42
35307;BME280;21420;52.196;21.416;2023-03-01T11:24:46;101278.73;;;20.54;47.22
35307;BME280;21420;52.196;21.416;2023-03-01T11:27:32;101275.70;;;20.22;47.64
35307;BME280;21420;52.196;21.416;2023-03-01T11:30:05;101275.22;;;20.29;48.25
35307;BME280;21420;52.196;21.416;2023-03-01T11:32:38;101269.02;;;20.44;47.90
35307;BME280;21420;52.196;21.416;2023-03-01T11:35:23;101262.26;;;20.50;48.38
35307;BME280;21420;52.196;21.416;2023-03-01T11:40:38;101264.82;;;20.59;48.21
35307;BME280;21420;52.196;21.416;2023-03-01T11:57:20;101257.17;;;21.30;47.46
35307;BME280;21420;52.196;21.416;2023-03-01T12:06:57;101259.55;;;21.26;47.67
35307;BME280;21420;52.196;21.416;2023-03-01T12:17:11;101248.98;;;21.41;46.91
35307;BME280;21420;52.196;21.416;2023-03-01T12:20:18;101253.92;;;21.18;47.29
35307;BME280;21420;52.196;21.416;2023-03-01T12:29:11;101245.88;;;21.04;47.07
35307;BME280;21420;52.196;21.416;2023-03-01T12:33:47;101239.92;;;20.95;46.98
35307;BME280;21420;52.196;21.416;2023-03-01T12:39:28;101233.11;;;20.87;46.79
35307;BME280;21420;52.196;21.416;2023-03-01T12:42:36;101230.92;;;20.18;46.10
35307;BME280;21420;52.196;21.416;2023-03-01T12:48:49;101238.69;;;18.46;45.92
35307;BME280;21420;52.196;21.416;2023-03-01T12:51:24;101234.63;;;18.40;46.88
35307;BME280;21420;52.196;21.416;2023-03-01T12:53:54;101230.95;;;18.70;47.12
35307;BME280;21420;52.196;21.416;2023-03-01T12:56:25;101229.55;;;18.95;47.08
35307;BME280;21420;52.196;21.416;2023-03-01T13:02:16;101225.27;;;18.62;46.09
35307;BME280;21420;52.196;21.416;2023-03-01T13:05:01;101221.29;;;18.12;46.19
35307;BME280;21420;52.196;21.416;2023-03-01T13:07:39;101220.08;;;17.68;46.23
35307;BME280;21420;52.196;21.416;2023-03-01T13:10:47;101218.91;;;17.08;45.85
35307;BME280;21420;52.196;21.416;2023-03-01T13:15:46;101216.73;;;15.89;46.11
35307;BME280;21420;52.196;21.416;2023-03-01T13:20:56;101218.64;;;15.50;46.68
35307;BME280;21420;52.196;21.416;2023-03-01T13:23:32;101214.86;;;15.34;46.71
35307;BME280;21420;52.196;21.416;2023-03-01T13:26:17;101210.48;;;15.32;46.93
35307;BME280;21420;52.196;21.416;2023-03-01T13:34:02;101206.08;;;14.87;47.06
35307;BME280;21420;52.196;21.416;2023-03-01T13:39:18;101206.96;;;14.52;46.93
35307;BME280;21420;52.196;21.416;2023-03-01T13:41:54;101207.13;;;14.18;46.92
35307;BME280;21420;52.196;21.416;2023-03-01T13:49:43;101195.21;;;12.90;46.89
35307;BME280;21420;52.196;21.416;2023-03-01T13:57:43;101187.63;;;13.95;48.17
35307;BME280;21420;52.196;21.416;2023-03-01T14:00:37;101187.09;;;14.00;47.75
35307;BME280;21420;52.196;21.416;2023-03-01T14:05:36;101185.77;;;13.61;47.30
35307;BME280;21420;52.196;21.416;2023-03-01T14:08:04;101184.87;;;13.47;47.34
35307;BME280;21420;52.196;21.416;2023-03-01T14:10:48;101183.67;;;13.59;47.73
35307;BME280;21420;52.196;21.416;2023-03-01T14:19:24;101177.92;;;13.14;47.37
35307;BME280;21420;52.196;21.416;2023-03-01T14:24:53;101169.20;;;12.64;47.45
35307;BME280;21420;52.196;21.416;2023-03-01T14:27:25;101168.29;;;12.30;47.41
35307;BME280;21420;52.196;21.416;2023-03-01T14:29:58;101166.61;;;12.09;47.41
35307;BME280;21420;52.196;21.416;2023-03-01T14:32:28;101162.91;;;11.90;47.71
35307;BME280;21420;52.196;21.416;2023-03-01T14:34:57;101158.81;;;11.72;47.57
35307;BME280;21420;52.196;21.416;2023-03-01T14:39:55;101155.88;;;11.59;48.04
35307;BME280;21420;52.196;21.416;2023-03-01T14:42:25;101151.74;;;11.69;48.31
35307;BME280;21420;52.196;21.416;2023-03-01T14:44:55;101149.06;;;11.86;48.42
35307;BME280;21420;52.196;21.416;2023-03-01T14:47:28;101147.73;;;12.22;48.81
35307;BME280;21420;52.196;21.416;2023-03-01T14:49:59;101149.67;;;12.51;48.87
35307;BME280;21420;52.196;21.416;2023-03-01T14:52:40;101152.42;;;12.51;48.48
35307;BME280;21420;52.196;21.416;2023-03-01T14:55:38;101152.75;;;12.43;48.21
35307;BME280;21420;52.196;21.416;2023-03-01T14:58:18;101151.81;;;11.99;47.95
35307;BME280;21420;52.196;21.416;2023-03-01T15:00:52;101151.94;;;11.61;47.73
35307;BME280;21420;52.196;21.416;2023-03-01T15:05:57;101141.33;;;10.74;47.58
35307;BME280;21420;52.196;21.416;2023-03-01T15:08:26;101139.41;;;10.37;47.48
35307;BME280;21420;52.196;21.416;2023-03-01T15:11:05;101140.45;;;10.06;47.66
35307;BME280;21420;52.196;21.416;2023-03-01T15:13:42;101138.32;;;9.77;47.99